Terminal Aerodrome Forecast
Issued by NWS Topeka, KS

Home | Current Version | Previous Version | Graphics & Text | Print | Product List | Glossary On
Versions: 1 2 3 4 5 6 7 8 9 10 11 12 13 14 15 16 17 18 19 20 21
000
FTUS43 KTOP 260520
TAFTOP
TAF
KTOP 260520Z 2606/2706 VRB03KT P6SM MIFG FEW200
     FM260900 23003KT 3SM BR MIFG FEW200
     FM261500 28006KT P6SM FEW040
     FM262300 33009KT P6SM BKN100=

USA.gov is the U.S. government's official web portal to all federal, state and local government web resources and services.